Aeroporto :
LOGIN :

Iscrizione | Disclaimer

   EN    FR    IT 

 










Sommario :    VFR   VFR Marginale   IFR   IFR Intensivo   IFR Molto Intensivo
Visibilità : 
Base nubi : 
>= 8 km
>= 3000ft
5 / 8 km
1000 / 3000 ft
1500m / 5 km
500 / 1000 ft
800 / 1500m
200 / 500 ft
< 800m
< 200 ft
Simboli :   Temporali  Nebbia  Neve Forte  Precipitazioni Forti  Vento > 20 kt
SIGMETs :   Varie  Temporali  Ghiacco  Turbolenza  Onda orograficha  Ceneri Vulcaniche






- Altitudine del aeroporto : 194 ft


EBCV - Chièvres

ULTIMO METAR :
  • 290425Z AUTO 01014KT 9999 FEW024/// OVC065/// 04/M00 Q1027 BLU

METARs OBSOLETI :
  • 290355Z AUTO 01014KT 9999 OVC032/// 04/M01 Q1028 BLU
  • 290325Z AUTO 35009KT 9999 FEW035/// OVC054/// 04/M01 Q1028 BLU
  • 290255Z AUTO 36010KT 9999 OVC052/// 04/M02 Q1028 BLU
  • 290225Z AUTO 01010KT 9999 BKN054/// 03/M02 Q1028 BLU
  • 290155Z AUTO 36011KT 9999 FEW057/// 03/M02 Q1028 BLU

TAF TAF EBCV
Valido dal 28 a 19 ore il 29 a 07 ore UTC


281541Z 2819/2907 02015G25KT 9999 SCT020 SCT090
TEMPO 2902/2906 36010KT BKN025
BECMG 2905/2907 02015G30KT SCT012 BY EBWM



MetMap, La meteo Aeronautica in un colpo d'occhio ! - Copyright ORBIFLY Dicembre 2007 - Disclaimer

ORBIFLY MET'MAP TEAM :

Programmazione e sviluppo : Alexandra Zaïnal
Concezione : Baudouin d'Aumeries
Aiuto per la programmazione : Marc-Olivier Méhu
Supporto tecnico e logistico : Manuel Goepfert
Aiuto per la traduzione : Arnaldo La Scala

Contatto : metmap@orbifly.com




FONTI E CREDITI :

   NOAA